sensor_id;sensor_type;location;lat;lon;timestamp;pressure;altitude;pressure_sealevel;temperature
70969;BMP280;58630;43.022;25.100;2023-01-29T00:01:39;99579.81;;;6.84
70969;BMP280;58630;43.022;25.100;2023-01-29T00:04:05;99580.59;;;6.84
70969;BMP280;58630;43.022;25.100;2023-01-29T00:06:30;99584.97;;;6.84
70969;BMP280;58630;43.022;25.100;2023-01-29T00:08:56;99583.41;;;6.83
70969;BMP280;58630;43.022;25.100;2023-01-29T00:11:22;99576.69;;;6.82
70969;BMP280;58630;43.022;25.100;2023-01-29T00:13:49;99582.59;;;6.82
70969;BMP280;58630;43.022;25.100;2023-01-29T00:16:14;99585.97;;;6.83
70969;BMP280;58630;43.022;25.100;2023-01-29T00:18:40;99585.19;;;6.82
70969;BMP280;58630;43.022;25.100;2023-01-29T00:21:07;99588.78;;;6.81
70969;BMP280;58630;43.022;25.100;2023-01-29T00:23:32;99591.16;;;6.83
70969;BMP280;58630;43.022;25.100;2023-01-29T00:25:58;99586.22;;;6.81
70969;BMP280;58630;43.022;25.100;2023-01-29T00:28:23;99592.19;;;6.82
70969;BMP280;58630;43.022;25.100;2023-01-29T00:30:49;99595.50;;;6.82
70969;BMP280;58630;43.022;25.100;2023-01-29T00:33:14;99599.94;;;6.82
70969;BMP280;58630;43.022;25.100;2023-01-29T00:35:39;99595.50;;;6.82
70969;BMP280;58630;43.022;25.100;2023-01-29T00:38:05;99588.22;;;6.79
70969;BMP280;58630;43.022;25.100;2023-01-29T00:40:30;99593.41;;;6.79
70969;BMP280;58630;43.022;25.100;2023-01-29T00:43:15;99588.22;;;6.79
70969;BMP280;58630;43.022;25.100;2023-01-29T00:45:59;99590.81;;;6.79
70969;BMP280;58630;43.022;25.100;2023-01-29T00:48:25;99594.19;;;6.80
70969;BMP280;58630;43.022;25.100;2023-01-29T00:50:50;99587.47;;;6.79
70969;BMP280;58630;43.022;25.100;2023-01-29T00:53:15;99593.41;;;6.79
70969;BMP280;58630;43.022;25.100;2023-01-29T00:55:40;99595.97;;;6.79
70969;BMP280;58630;43.022;25.100;2023-01-29T00:58:06;99597.78;;;6.79
70969;BMP280;58630;43.022;25.100;2023-01-29T01:00:31;99598.56;;;6.79
70969;BMP280;58630;43.022;25.100;2023-01-29T01:02:56;99589.25;;;6.78
70969;BMP280;58630;43.022;25.100;2023-01-29T01:05:31;99603.97;;;6.78
70969;BMP280;58630;43.022;25.100;2023-01-29T01:07:56;99591.81;;;6.78
70969;BMP280;58630;43.022;25.100;2023-01-29T01:10:26;99605.75;;;6.77
70969;BMP280;58630;43.022;25.100;2023-01-29T01:12:53;99604.16;;;6.76
70969;BMP280;58630;43.022;25.100;2023-01-29T01:15:19;99594.63;;;6.77
70969;BMP280;58630;43.022;25.100;2023-01-29T01:17:45;99599.00;;;6.76
70969;BMP280;58630;43.022;25.100;2023-01-29T01:20:13;99608.31;;;6.77
70969;BMP280;58630;43.022;25.100;2023-01-29T01:22:38;99601.56;;;6.76
70969;BMP280;58630;43.022;25.100;2023-01-29T01:25:04;99604.16;;;6.76
70969;BMP280;58630;43.022;25.100;2023-01-29T01:27:29;99610.13;;;6.77
70969;BMP280;58630;43.022;25.100;2023-01-29T01:29:54;99608.56;;;6.76
70969;BMP280;58630;43.022;25.100;2023-01-29T01:32:20;99608.56;;;6.76
70969;BMP280;58630;43.022;25.100;2023-01-29T01:34:45;99606.75;;;6.76
70969;BMP280;58630;43.022;25.100;2023-01-29T01:37:10;99610.34;;;6.75
70969;BMP280;58630;43.022;25.100;2023-01-29T01:39:35;99610.34;;;6.75
70969;BMP280;58630;43.022;25.100;2023-01-29T01:42:01;99611.34;;;6.74
70969;BMP280;58630;43.022;25.100;2023-01-29T01:47:10;99621.66;;;6.74
70969;BMP280;58630;43.022;25.100;2023-01-29T01:49:36;99614.72;;;6.75
70969;BMP280;58630;43.022;25.100;2023-01-29T01:52:01;99619.09;;;6.74
70969;BMP280;58630;43.022;25.100;2023-01-29T01:54:27;99613.91;;;6.74
70969;BMP280;58630;43.022;25.100;2023-01-29T01:57:00;99610.56;;;6.74
70969;BMP280;58630;43.022;25.100;2023-01-29T01:59:33;99621.66;;;6.74
70969;BMP280;58630;43.022;25.100;2023-01-29T02:01:59;99614.94;;;6.73
70969;BMP280;58630;43.022;25.100;2023-01-29T02:04:45;99617.50;;;6.73
70969;BMP280;58630;43.022;25.100;2023-01-29T02:07:29;99609.75;;;6.73
70969;BMP280;58630;43.022;25.100;2023-01-29T02:10:14;99614.16;;;6.73
70969;BMP280;58630;43.022;25.100;2023-01-29T02:12:39;99609.75;;;6.73
70969;BMP280;58630;43.022;25.100;2023-01-29T02:15:05;99613.34;;;6.72
70969;BMP280;58630;43.022;25.100;2023-01-29T02:17:31;99617.50;;;6.73
70969;BMP280;58630;43.022;25.100;2023-01-29T02:33:37;99616.94;;;6.71
70969;BMP280;58630;43.022;25.100;2023-01-29T02:41:41;99615.34;;;6.70
70969;BMP280;58630;43.022;25.100;2023-01-29T02:49:30;99607.63;;;6.70
70969;BMP280;58630;43.022;25.100;2023-01-29T02:54:23;99612.78;;;6.70
70969;BMP280;58630;43.022;25.100;2023-01-29T02:57:06;99618.97;;;6.69
70969;BMP280;58630;43.022;25.100;2023-01-29T02:59:36;99616.16;;;6.71
70969;BMP280;58630;43.022;25.100;2023-01-29T03:02:07;99613.81;;;6.69
70969;BMP280;58630;43.022;25.100;2023-01-29T03:04:35;99614.63;;;6.70
70969;BMP280;58630;43.022;25.100;2023-01-29T03:07:07;99626.72;;;6.69
70969;BMP280;58630;43.022;25.100;2023-01-29T03:09:44;99621.56;;;6.69
70969;BMP280;58630;43.022;25.100;2023-01-29T03:12:14;99628.53;;;6.69
70969;BMP280;58630;43.022;25.100;2023-01-29T03:14:52;99622.59;;;6.68
70969;BMP280;58630;43.022;25.100;2023-01-29T03:17:43;99626.19;;;6.67
70969;BMP280;58630;43.022;25.100;2023-01-29T03:20:10;99632.94;;;6.68
70969;BMP280;58630;43.022;25.100;2023-01-29T03:22:38;99631.34;;;6.67
70969;BMP280;58630;43.022;25.100;2023-01-29T03:25:04;99633.94;;;6.67
70969;BMP280;58630;43.022;25.100;2023-01-29T03:27:52;99643.25;;;6.68
70969;BMP280;58630;43.022;25.100;2023-01-29T03:30:40;99643.25;;;6.68
70969;BMP280;58630;43.022;25.100;2023-01-29T03:33:25;99633.94;;;6.67
70969;BMP280;58630;43.022;25.100;2023-01-29T03:35:58;99644.25;;;6.67
70969;BMP280;58630;43.022;25.100;2023-01-29T03:38:27;99636.50;;;6.67
70969;BMP280;58630;43.022;25.100;2023-01-29T03:41:01;99636.50;;;6.67
70969;BMP280;58630;43.022;25.100;2023-01-29T03:43:36;99645.25;;;6.66
70969;BMP280;58630;43.022;25.100;2023-01-29T03:46:10;99641.88;;;6.66
70969;BMP280;58630;43.022;25.100;2023-01-29T03:48:49;99645.25;;;6.66
70969;BMP280;58630;43.022;25.100;2023-01-29T03:54:05;99647.03;;;6.66
70969;BMP280;58630;43.022;25.100;2023-01-29T04:01:44;99643.69;;;6.65
70969;BMP280;58630;43.022;25.100;2023-01-29T04:04:16;99633.34;;;6.65
70969;BMP280;58630;43.022;25.100;2023-01-29T04:06:43;99634.94;;;6.66
70969;BMP280;58630;43.022;25.100;2023-01-29T04:09:21;99639.53;;;6.64
70969;BMP280;58630;43.022;25.100;2023-01-29T04:11:49;99635.13;;;6.65
70969;BMP280;58630;43.022;25.100;2023-01-29T04:14:16;99642.09;;;6.64
70969;BMP280;58630;43.022;25.100;2023-01-29T04:16:44;99637.72;;;6.65
70969;BMP280;58630;43.022;25.100;2023-01-29T04:19:11;99647.28;;;6.64
70969;BMP280;58630;43.022;25.100;2023-01-29T04:21:36;99647.28;;;6.64
70969;BMP280;58630;43.022;25.100;2023-01-29T04:24:03;99651.44;;;6.65
70969;BMP280;58630;43.022;25.100;2023-01-29T04:31:44;99649.84;;;6.64
70969;BMP280;58630;43.022;25.100;2023-01-29T04:41:49;99662.75;;;6.64
70969;BMP280;58630;43.022;25.100;2023-01-29T04:44:28;99661.97;;;6.64
70969;BMP280;58630;43.022;25.100;2023-01-29T04:57:14;99671.50;;;6.63
70969;BMP280;58630;43.022;25.100;2023-01-29T04:59:44;99668.13;;;6.63
70969;BMP280;58630;43.022;25.100;2023-01-29T05:02:11;99671.50;;;6.63
70969;BMP280;58630;43.022;25.100;2023-01-29T05:04:37;99677.69;;;6.62
70969;BMP280;58630;43.022;25.100;2023-01-29T05:07:04;99677.69;;;6.62
70969;BMP280;58630;43.022;25.100;2023-01-29T05:09:31;99677.69;;;6.62
70969;BMP280;58630;43.022;25.100;2023-01-29T05:11:57;99680.25;;;6.62
70969;BMP280;58630;43.022;25.100;2023-01-29T05:14:24;99682.03;;;6.62
70969;BMP280;58630;43.022;25.100;2023-01-29T05:16:52;99699.34;;;6.61
70969;BMP280;58630;43.022;25.100;2023-01-29T05:19:18;99697.75;;;6.60
70969;BMP280;58630;43.022;25.100;2023-01-29T05:21:44;99693.38;;;6.61
70969;BMP280;58630;43.022;25.100;2023-01-29T05:26:42;99695.19;;;6.60
70969;BMP280;58630;43.022;25.100;2023-01-29T05:29:27;99697.75;;;6.60
70969;BMP280;58630;43.022;25.100;2023-01-29T05:31:52;99710.66;;;6.60
70969;BMP280;58630;43.022;25.100;2023-01-29T05:34:17;99707.28;;;6.60
70969;BMP280;58630;43.022;25.100;2023-01-29T05:36:43;99704.94;;;6.58
70969;BMP280;58630;43.022;25.100;2023-01-29T05:39:08;99716.03;;;6.59
70969;BMP280;58630;43.022;25.100;2023-01-29T05:41:33;99710.88;;;6.59
70969;BMP280;58630;43.022;25.100;2023-01-29T05:43:58;99713.69;;;6.57
70969;BMP280;58630;43.022;25.100;2023-01-29T05:46:24;99718.84;;;6.57
70969;BMP280;58630;43.022;25.100;2023-01-29T05:48:51;99719.63;;;6.58
70969;BMP280;58630;43.022;25.100;2023-01-29T05:51:16;99718.03;;;6.57
70969;BMP280;58630;43.022;25.100;2023-01-29T05:53:41;99729.16;;;6.57
70969;BMP280;58630;43.022;25.100;2023-01-29T05:56:06;99725.03;;;6.57
70969;BMP280;58630;43.022;25.100;2023-01-29T05:58:32;99724.00;;;6.57
70969;BMP280;58630;43.022;25.100;2023-01-29T06:01:06;99734.34;;;6.57
70969;BMP280;58630;43.022;25.100;2023-01-29T06:03:31;99737.94;;;6.57
70969;BMP280;58630;43.022;25.100;2023-01-29T06:05:56;99734.34;;;6.57
70969;BMP280;58630;43.022;25.100;2023-01-29T06:08:22;99738.69;;;6.57
70969;BMP280;58630;43.022;25.100;2023-01-29T06:10:47;99743.84;;;6.57
70969;BMP280;58630;43.022;25.100;2023-01-29T06:13:12;99746.44;;;6.57
70969;BMP280;58630;43.022;25.100;2023-01-29T06:15:38;99746.44;;;6.57
70969;BMP280;58630;43.022;25.100;2023-01-29T06:18:03;99749.03;;;6.57
70969;BMP280;58630;43.022;25.100;2023-01-29T06:20:29;99753.44;;;6.57
70969;BMP280;58630;43.022;25.100;2023-01-29T06:22:54;99755.22;;;6.56
70969;BMP280;58630;43.022;25.100;2023-01-29T06:25:19;99761.19;;;6.57
70969;BMP280;58630;43.022;25.100;2023-01-29T06:27:44;99757.78;;;6.56
70969;BMP280;58630;43.022;25.100;2023-01-29T06:30:10;99759.59;;;6.56
70969;BMP280;58630;43.022;25.100;2023-01-29T06:32:35;99768.94;;;6.57
70969;BMP280;58630;43.022;25.100;2023-01-29T06:35:00;99768.13;;;6.56
70969;BMP280;58630;43.022;25.100;2023-01-29T06:37:26;99765.53;;;6.56
70969;BMP280;58630;43.022;25.100;2023-01-29T06:39:51;99769.66;;;6.57
70969;BMP280;58630;43.022;25.100;2023-01-29T06:42:16;99774.09;;;6.57
70969;BMP280;58630;43.022;25.100;2023-01-29T06:44:42;99782.59;;;6.57
70969;BMP280;58630;43.022;25.100;2023-01-29T06:47:08;99787.00;;;6.57
70969;BMP280;58630;43.022;25.100;2023-01-29T06:49:33;99789.59;;;6.57
70969;BMP280;58630;43.022;25.100;2023-01-29T06:51:58;99799.91;;;6.57
70969;BMP280;58630;43.022;25.100;2023-01-29T06:54:24;99798.88;;;6.57
70969;BMP280;58630;43.022;25.100;2023-01-29T06:56:50;99797.06;;;6.58
70969;BMP280;58630;43.022;25.100;2023-01-29T06:59:15;99805.81;;;6.57
70969;BMP280;58630;43.022;25.100;2023-01-29T07:01:40;99806.63;;;6.57
70969;BMP280;58630;43.022;25.100;2023-01-29T07:04:08;99802.50;;;6.57
70969;BMP280;58630;43.022;25.100;2023-01-29T07:06:33;99803.22;;;6.57
70969;BMP280;58630;43.022;25.100;2023-01-29T07:08:58;99811.78;;;6.57
70969;BMP280;58630;43.022;25.100;2023-01-29T07:11:23;99806.63;;;6.57
70969;BMP280;58630;43.022;25.100;2023-01-29T07:13:49;99808.19;;;6.58
70969;BMP280;58630;43.022;25.100;2023-01-29T07:16:14;99809.78;;;6.59
70969;BMP280;58630;43.022;25.100;2023-01-29T07:18:39;99812.38;;;6.59
70969;BMP280;58630;43.022;25.100;2023-01-29T07:21:05;99812.13;;;6.61
70969;BMP280;58630;43.022;25.100;2023-01-29T07:23:31;99807.78;;;6.61
70969;BMP280;58630;43.022;25.100;2023-01-29T07:25:58;99812.72;;;6.63
70969;BMP280;58630;43.022;25.100;2023-01-29T07:28:24;99822.25;;;6.62
70969;BMP280;58630;43.022;25.100;2023-01-29T07:30:49;99823.84;;;6.63
70969;BMP280;58630;43.022;25.100;2023-01-29T07:33:15;99828.78;;;6.65
70969;BMP280;58630;43.022;25.100;2023-01-29T07:35:41;99819.44;;;6.64
70969;BMP280;58630;43.022;25.100;2023-01-29T07:38:07;99822.84;;;6.64
70969;BMP280;58630;43.022;25.100;2023-01-29T07:40:33;99819.44;;;6.64
70969;BMP280;58630;43.022;25.100;2023-01-29T07:42:58;99820.25;;;6.64
70969;BMP280;58630;43.022;25.100;2023-01-29T07:45:24;99820.25;;;6.64
70969;BMP280;58630;43.022;25.100;2023-01-29T07:47:53;99824.44;;;6.65
70969;BMP280;58630;43.022;25.100;2023-01-29T07:50:19;99829.59;;;6.65
70969;BMP280;58630;43.022;25.100;2023-01-29T07:52:45;99831.38;;;6.65
70969;BMP280;58630;43.022;25.100;2023-01-29T07:55:10;99834.75;;;6.65
70969;BMP280;58630;43.022;25.100;2023-01-29T07:57:35;99834.75;;;6.65
70969;BMP280;58630;43.022;25.100;2023-01-29T08:00:01;99846.66;;;6.66
70969;BMP280;58630;43.022;25.100;2023-01-29T08:02:26;99851.03;;;6.66
70969;BMP280;58630;43.022;25.100;2023-01-29T08:04:51;99841.50;;;6.66
70969;BMP280;58630;43.022;25.100;2023-01-29T08:07:16;99850.81;;;6.67
70969;BMP280;58630;43.022;25.100;2023-01-29T08:09:42;99847.44;;;6.67
70969;BMP280;58630;43.022;25.100;2023-01-29T08:12:07;99858.56;;;6.67
70969;BMP280;58630;43.022;25.100;2023-01-29T08:14:32;99849.81;;;6.68
70969;BMP280;58630;43.022;25.100;2023-01-29T08:16:57;99853.41;;;6.67
70969;BMP280;58630;43.022;25.100;2023-01-29T08:19:23;99855.00;;;6.68
70969;BMP280;58630;43.022;25.100;2023-01-29T08:21:48;99855.00;;;6.68
70969;BMP280;58630;43.022;25.100;2023-01-29T08:24:13;99860.94;;;6.69
70969;BMP280;58630;43.022;25.100;2023-01-29T08:26:39;99857.56;;;6.68
70969;BMP280;58630;43.022;25.100;2023-01-29T08:29:04;99856.53;;;6.69
70969;BMP280;58630;43.022;25.100;2023-01-29T08:31:29;99862.50;;;6.70
70969;BMP280;58630;43.022;25.100;2023-01-29T08:33:54;99853.97;;;6.69
70969;BMP280;58630;43.022;25.100;2023-01-29T08:36:20;99863.25;;;6.70
70969;BMP280;58630;43.022;25.100;2023-01-29T08:38:45;99869.44;;;6.69
70969;BMP280;58630;43.022;25.100;2023-01-29T08:41:10;99870.81;;;6.72
70969;BMP280;58630;43.022;25.100;2023-01-29T08:43:36;99875.97;;;6.72
70969;BMP280;58630;43.022;25.100;2023-01-29T08:46:03;99871.56;;;6.72
70969;BMP280;58630;43.022;25.100;2023-01-29T08:48:28;99870.56;;;6.73
70969;BMP280;58630;43.022;25.100;2023-01-29T08:50:57;99878.31;;;6.73
70969;BMP280;58630;43.022;25.100;2023-01-29T08:53:23;99868.00;;;6.73
70969;BMP280;58630;43.022;25.100;2023-01-29T08:55:48;99871.16;;;6.75
70969;BMP280;58630;43.022;25.100;2023-01-29T08:58:14;99866.78;;;6.76
70969;BMP280;58630;43.022;25.100;2023-01-29T09:00:39;99879.47;;;6.77
70969;BMP280;58630;43.022;25.100;2023-01-29T09:03:04;99868.94;;;6.79
70969;BMP280;58630;43.022;25.100;2023-01-29T09:05:31;99874.69;;;6.81
70969;BMP280;58630;43.022;25.100;2023-01-29T09:07:57;99866.69;;;6.82
70969;BMP280;58630;43.022;25.100;2023-01-29T09:10:22;99868.28;;;6.83
70969;BMP280;58630;43.022;25.100;2023-01-29T09:12:47;99866.25;;;6.85
70969;BMP280;58630;43.022;25.100;2023-01-29T09:15:12;99860.09;;;6.86
70969;BMP280;58630;43.022;25.100;2023-01-29T09:17:38;99865.84;;;6.88
70969;BMP280;58630;43.022;25.100;2023-01-29T09:20:03;99857.09;;;6.89
70969;BMP280;58630;43.022;25.100;2023-01-29T09:22:31;99857.88;;;6.90
70969;BMP280;58630;43.022;25.100;2023-01-29T09:24:56;99854.84;;;6.93
70969;BMP280;58630;43.022;25.100;2023-01-29T09:27:22;99859.81;;;6.94
70969;BMP280;58630;43.022;25.100;2023-01-29T09:29:47;99852.81;;;6.95
70969;BMP280;58630;43.022;25.100;2023-01-29T09:32:12;99860.38;;;6.96
70969;BMP280;58630;43.022;25.100;2023-01-29T09:34:37;99857.78;;;6.96
70969;BMP280;58630;43.022;25.100;2023-01-29T09:37:03;99852.38;;;6.98
70969;BMP280;58630;43.022;25.100;2023-01-29T09:39:28;99854.97;;;6.98
70969;BMP280;58630;43.022;25.100;2023-01-29T09:42:11;99855.78;;;6.98
70969;BMP280;58630;43.022;25.100;2023-01-29T09:47:04;99852.38;;;6.98
70969;BMP280;58630;43.022;25.100;2023-01-29T09:49:36;99845.44;;;6.98
70969;BMP280;58630;43.022;25.100;2023-01-29T09:52:12;99846.22;;;6.99
70969;BMP280;58630;43.022;25.100;2023-01-29T09:57:25;99844.44;;;6.99
70969;BMP280;58630;43.022;25.100;2023-01-29T09:59:52;99843.44;;;7.00
70969;BMP280;58630;43.022;25.100;2023-01-29T10:07:39;99841.63;;;7.01
70969;BMP280;58630;43.022;25.100;2023-01-29T10:25:14;99840.97;;;7.05
70969;BMP280;58630;43.022;25.100;2023-01-29T10:27:41;99831.63;;;7.04
70969;BMP280;58630;43.022;25.100;2023-01-29T10:33:03;99835.81;;;7.05
70969;BMP280;58630;43.022;25.100;2023-01-29T10:35:38;99829.59;;;7.06
70969;BMP280;58630;43.022;25.100;2023-01-29T10:51:09;99824.81;;;7.10
70969;BMP280;58630;43.022;25.100;2023-01-29T10:58:34;99814.47;;;7.10
70969;BMP280;58630;43.022;25.100;2023-01-29T11:01:00;99802.31;;;7.10
70969;BMP280;58630;43.022;25.100;2023-01-29T11:03:29;99800.75;;;7.09
70969;BMP280;58630;43.022;25.100;2023-01-29T11:05:57;99802.31;;;7.10
70969;BMP280;58630;43.022;25.100;2023-01-29T11:08:30;99796.38;;;7.10
70969;BMP280;58630;43.022;25.100;2023-01-29T11:13:31;99803.91;;;7.11
70969;BMP280;58630;43.022;25.100;2023-01-29T11:15:57;99796.97;;;7.12
70969;BMP280;58630;43.022;25.100;2023-01-29T11:18:23;99789.22;;;7.12
70969;BMP280;58630;43.022;25.100;2023-01-29T11:20:58;99786.41;;;7.13
70969;BMP280;58630;43.022;25.100;2023-01-29T11:23:24;99781.22;;;7.13
70969;BMP280;58630;43.022;25.100;2023-01-29T11:25:51;99782.03;;;7.14
70969;BMP280;58630;43.022;25.100;2023-01-29T11:28:16;99784.38;;;7.15
70969;BMP280;58630;43.022;25.100;2023-01-29T11:30:59;99783.38;;;7.16
70969;BMP280;58630;43.022;25.100;2023-01-29T11:33:24;99768.66;;;7.17
70969;BMP280;58630;43.022;25.100;2023-01-29T11:35:49;99766.88;;;7.17
70969;BMP280;58630;43.022;25.100;2023-01-29T11:38:26;99766.88;;;7.17
70969;BMP280;58630;43.022;25.100;2023-01-29T11:40:51;99765.03;;;7.18
70969;BMP280;58630;43.022;25.100;2023-01-29T11:43:18;99761.69;;;7.17
70969;BMP280;58630;43.022;25.100;2023-01-29T11:45:43;99769.19;;;7.19
70969;BMP280;58630;43.022;25.100;2023-01-29T11:48:12;99759.66;;;7.19
70969;BMP280;58630;43.022;25.100;2023-01-29T11:50:38;99755.50;;;7.18
70969;BMP280;58630;43.022;25.100;2023-01-29T11:53:03;99757.84;;;7.20
70969;BMP280;58630;43.022;25.100;2023-01-29T11:55:31;99759.44;;;7.21
70969;BMP280;58630;43.022;25.100;2023-01-29T11:58:02;99762.81;;;7.21
70969;BMP280;58630;43.022;25.100;2023-01-29T12:00:32;99758.22;;;7.23
70969;BMP280;58630;43.022;25.100;2023-01-29T12:05:26;99762.38;;;7.24
70969;BMP280;58630;43.022;25.100;2023-01-29T12:07:53;99748.44;;;7.25
70969;BMP280;58630;43.022;25.100;2023-01-29T12:13:30;99740.47;;;7.27
70969;BMP280;58630;43.022;25.100;2023-01-29T12:15:48;99741.25;;;7.27
70969;BMP280;58630;43.022;25.100;2023-01-29T12:20:52;99750.59;;;7.28
70969;BMP280;58630;43.022;25.100;2023-01-29T12:28:46;99749.13;;;7.32
70969;BMP280;58630;43.022;25.100;2023-01-29T12:31:20;99751.47;;;7.34
70969;BMP280;58630;43.022;25.100;2023-01-29T12:33:53;99755.84;;;7.33
70969;BMP280;58630;43.022;25.100;2023-01-29T12:36:24;99754.28;;;7.32
70969;BMP280;58630;43.022;25.100;2023-01-29T12:38:50;99754.28;;;7.32
70969;BMP280;58630;43.022;25.100;2023-01-29T12:44:09;99753.25;;;7.33
70969;BMP280;58630;43.022;25.100;2023-01-29T12:46:37;99755.63;;;7.35
70969;BMP280;58630;43.022;25.100;2023-01-29T12:49:06;99757.41;;;7.34
70969;BMP280;58630;43.022;25.100;2023-01-29T12:51:37;99767.75;;;7.34
70969;BMP280;58630;43.022;25.100;2023-01-29T12:54:09;99762.59;;;7.34
70969;BMP280;58630;43.022;25.100;2023-01-29T12:56:37;99759.22;;;7.34
70969;BMP280;58630;43.022;25.100;2023-01-29T12:59:04;99758.22;;;7.35
70969;BMP280;58630;43.022;25.100;2023-01-29T13:01:39;99759.00;;;7.35
70969;BMP280;58630;43.022;25.100;2023-01-29T13:04:10;99762.59;;;7.34
70969;BMP280;58630;43.022;25.100;2023-01-29T13:06:39;99775.31;;;7.36
70969;BMP280;58630;43.022;25.100;2023-01-29T13:09:16;99772.72;;;7.36
70969;BMP280;58630;43.022;25.100;2023-01-29T13:11:51;99772.72;;;7.36
70969;BMP280;58630;43.022;25.100;2023-01-29T13:14:24;99775.31;;;7.36
70969;BMP280;58630;43.022;25.100;2023-01-29T13:16:56;99770.91;;;7.36
70969;BMP280;58630;43.022;25.100;2023-01-29T13:19:30;99771.81;;;7.41
70969;BMP280;58630;43.022;25.100;2023-01-29T13:21:58;99766.41;;;7.43
70969;BMP280;58630;43.022;25.100;2023-01-29T13:24:24;99772.16;;;7.45
70969;BMP280;58630;43.022;25.100;2023-01-29T13:26:50;99775.19;;;7.42
70969;BMP280;58630;43.022;25.100;2023-01-29T13:29:25;99775.19;;;7.42
70969;BMP280;58630;43.022;25.100;2023-01-29T13:31:52;99768.44;;;7.41
70969;BMP280;58630;43.022;25.100;2023-01-29T13:36:44;99766.13;;;7.39
70969;BMP280;58630;43.022;25.100;2023-01-29T13:41:41;99769.69;;;7.38
70969;BMP280;58630;43.022;25.100;2023-01-29T13:44:07;99762.72;;;7.39
70969;BMP280;58630;43.022;25.100;2023-01-29T13:46:40;99760.94;;;7.39
70969;BMP280;58630;43.022;25.100;2023-01-29T13:49:14;99772.28;;;7.38
70969;BMP280;58630;43.022;25.100;2023-01-29T13:51:46;99773.28;;;7.38
70969;BMP280;58630;43.022;25.100;2023-01-29T13:54:15;99781.06;;;7.38
70969;BMP280;58630;43.022;25.100;2023-01-29T13:56:43;99778.47;;;7.38
70969;BMP280;58630;43.022;25.100;2023-01-29T14:04:23;99776.88;;;7.37
70969;BMP280;58630;43.022;25.100;2023-01-29T14:06:58;99776.09;;;7.36
70969;BMP280;58630;43.022;25.100;2023-01-29T14:09:30;99789.00;;;7.36
70969;BMP280;58630;43.022;25.100;2023-01-29T14:11:56;99791.81;;;7.35
70969;BMP280;58630;43.022;25.100;2023-01-29T14:17:05;99793.59;;;7.34
70969;BMP280;58630;43.022;25.100;2023-01-29T14:19:31;99790.47;;;7.32
70969;BMP280;58630;43.022;25.100;2023-01-29T14:21:56;99789.69;;;7.32
70969;BMP280;58630;43.022;25.100;2023-01-29T14:24:23;99783.72;;;7.31
70969;BMP280;58630;43.022;25.100;2023-01-29T14:26:54;99784.75;;;7.30
70969;BMP280;58630;43.022;25.100;2023-01-29T14:29:22;99786.84;;;7.33
70969;BMP280;58630;43.022;25.100;2023-01-29T14:31:49;99788.22;;;7.36
70969;BMP280;58630;43.022;25.100;2023-01-29T14:36:54;99787.91;;;7.32
70969;BMP280;58630;43.022;25.100;2023-01-29T14:41:58;99787.31;;;7.30
70969;BMP280;58630;43.022;25.100;2023-01-29T14:52:41;99787.56;;;7.29
70969;BMP280;58630;43.022;25.100;2023-01-29T14:55:28;99784.97;;;7.29
70969;BMP280;58630;43.022;25.100;2023-01-29T14:57:52;99799.72;;;7.28
70969;BMP280;58630;43.022;25.100;2023-01-29T15:00:26;99801.50;;;7.28
70969;BMP280;58630;43.022;25.100;2023-01-29T15:02:52;99804.88;;;7.28
70969;BMP280;58630;43.022;25.100;2023-01-29T15:05:19;99793.16;;;7.26
70969;BMP280;58630;43.022;25.100;2023-01-29T15:10:15;99794.97;;;7.25
70969;BMP280;58630;43.022;25.100;2023-01-29T15:12:59;99800.13;;;7.25
70969;BMP280;58630;43.022;25.100;2023-01-29T15:21:00;99800.13;;;7.25
70969;BMP280;58630;43.022;25.100;2023-01-29T15:23:32;99806.31;;;7.24
70969;BMP280;58630;43.022;25.100;2023-01-29T15:25:58;99808.09;;;7.24
70969;BMP280;58630;43.022;25.100;2023-01-29T15:28:27;99803.72;;;7.24
70969;BMP280;58630;43.022;25.100;2023-01-29T15:30:52;99802.91;;;7.24
70969;BMP280;58630;43.022;25.100;2023-01-29T15:33:18;99803.72;;;7.24
70969;BMP280;58630;43.022;25.100;2023-01-29T15:35:44;99794.59;;;7.22
70969;BMP280;58630;43.022;25.100;2023-01-29T15:40:39;99805.75;;;7.22
70969;BMP280;58630;43.022;25.100;2023-01-29T15:43:26;99807.53;;;7.22
70969;BMP280;58630;43.022;25.100;2023-01-29T15:45:50;99804.94;;;7.22
70969;BMP280;58630;43.022;25.100;2023-01-29T15:48:17;99804.16;;;7.21
70969;BMP280;58630;43.022;25.100;2023-01-29T15:50:43;99806.75;;;7.21
70969;BMP280;58630;43.022;25.100;2023-01-29T15:53:13;99809.34;;;7.21
70969;BMP280;58630;43.022;25.100;2023-01-29T15:55:39;99811.91;;;7.21
70969;BMP280;58630;43.022;25.100;2023-01-29T15:58:05;99811.91;;;7.21
70969;BMP280;58630;43.022;25.100;2023-01-29T16:00:31;99814.50;;;7.21
70969;BMP280;58630;43.022;25.100;2023-01-29T16:02:57;99812.69;;;7.22
70969;BMP280;58630;43.022;25.100;2023-01-29T16:05:26;99812.91;;;7.20
70969;BMP280;58630;43.022;25.100;2023-01-29T16:07:52;99811.91;;;7.21
70969;BMP280;58630;43.022;25.100;2023-01-29T16:10:20;99820.66;;;7.20
70969;BMP280;58630;43.022;25.100;2023-01-29T16:12:47;99818.09;;;7.20
70969;BMP280;58630;43.022;25.100;2023-01-29T16:15:37;99810.53;;;7.19
70969;BMP280;58630;43.022;25.100;2023-01-29T16:18:02;99813.94;;;7.19
70969;BMP280;58630;43.022;25.100;2023-01-29T16:20:32;99811.34;;;7.19
70969;BMP280;58630;43.022;25.100;2023-01-29T16:22:59;99806.16;;;7.19
70969;BMP280;58630;43.022;25.100;2023-01-29T16:25:24;99811.34;;;7.19
70969;BMP280;58630;43.022;25.100;2023-01-29T16:27:50;99815.72;;;7.19
70969;BMP280;58630;43.022;25.100;2023-01-29T16:30:16;99817.50;;;7.18
70969;BMP280;58630;43.022;25.100;2023-01-29T16:32:41;99814.13;;;7.18
70969;BMP280;58630;43.022;25.100;2023-01-29T16:35:12;99825.28;;;7.18
70969;BMP280;58630;43.022;25.100;2023-01-29T16:37:38;99815.97;;;7.17
70969;BMP280;58630;43.022;25.100;2023-01-29T16:42:47;99820.09;;;7.18
70969;BMP280;58630;43.022;25.100;2023-01-29T16:45:24;99820.09;;;7.18
70969;BMP280;58630;43.022;25.100;2023-01-29T16:48:00;99815.97;;;7.17
70969;BMP280;58630;43.022;25.100;2023-01-29T16:50:29;99823.72;;;7.17
70969;BMP280;58630;43.022;25.100;2023-01-29T16:53:00;99822.13;;;7.16
70969;BMP280;58630;43.022;25.100;2023-01-29T16:55:31;99822.13;;;7.16
70969;BMP280;58630;43.022;25.100;2023-01-29T16:57:57;99821.13;;;7.17
70969;BMP280;58630;43.022;25.100;2023-01-29T17:00:27;99821.59;;;7.26
70969;BMP280;58630;43.022;25.100;2023-01-29T17:02:58;99822.41;;;7.26